Time;durP1;ratioP1;P1;durP2;ratioP2;P2;SDS_P1;SDS_P2;PMS_P1;PMS_P2;Temp;Humidity;BMP_temperature;BMP_pressure;BME280_temperature;BME280_humidity;BME280_pressure;Samples;Min_cycle;Max_cycle;Signal;HPM_P1;HPM_P2
2024/02/22 00:00:03;;;;;;;4.53;3.60;;;;;;;;;;4964872;28;20031;-81
2024/02/22 00:02:29;;;;;;;4.53;3.28;;;;;;;;;;4951432;28;20050;-82
2024/02/22 00:04:55;;;;;;;4.45;3.55;;;;;;;;;;4948773;28;20382;-82
2024/02/22 00:07:21;;;;;;;5.68;3.70;;;;;;;;;;4970268;28;20416;-82
2024/02/22 00:09:47;;;;;;;4.65;3.88;;;;;;;;;;4967240;28;20404;-82
2024/02/22 00:12:12;;;;;;;4.57;3.60;;;;;;;;;;4968484;28;20197;-81
2024/02/22 00:14:39;;;;;;;4.50;3.13;;;;;;;;;;4969007;28;20130;-82
2024/02/22 00:17:05;;;;;;;4.65;3.65;;;;;;;;;;4966557;28;20030;-82
2024/02/22 00:19:31;;;;;;;4.63;3.50;;;;;;;;;;4968632;28;20039;-81
2024/02/22 00:21:57;;;;;;;4.15;3.22;;;;;;;;;;4967353;28;20392;-81
2024/02/22 00:24:22;;;;;;;4.50;3.60;;;;;;;;;;4969626;28;20097;-81
2024/02/22 00:26:48;;;;;;;4.65;3.65;;;;;;;;;;4968216;28;20485;-82
2024/02/22 00:29:13;;;;;;;4.72;3.60;;;;;;;;;;4968555;28;20026;-81
2024/02/22 00:31:39;;;;;;;4.85;3.78;;;;;;;;;;4968250;28;20082;-82
2024/02/22 00:34:04;;;;;;;3.85;3.25;;;;;;;;;;4968366;28;20499;-82
2024/02/22 00:36:39;;;;;;;4.68;3.58;;;;;;;;;;4968446;28;20033;-82
2024/02/22 00:39:04;;;;;;;5.03;3.80;;;;;;;;;;4967308;28;20037;-82
2024/02/22 00:41:30;;;;;;;4.25;3.33;;;;;;;;;;4969579;28;20027;-82
2024/02/22 00:43:55;;;;;;;4.15;3.38;;;;;;;;;;4967328;28;20389;-79
2024/02/22 00:46:21;;;;;;;5.32;3.53;;;;;;;;;;4963489;28;20397;-79
2024/02/22 00:48:46;;;;;;;4.15;3.20;;;;;;;;;;4951583;28;20461;-79
2024/02/22 00:51:12;;;;;;;5.90;3.72;;;;;;;;;;4949106;28;20043;-79
2024/02/22 00:53:37;;;;;;;4.97;3.70;;;;;;;;;;4950966;28;20027;-79
2024/02/22 00:56:03;;;;;;;5.20;3.92;;;;;;;;;;4974038;28;20030;-79
2024/02/22 00:58:28;;;;;;;4.47;3.75;;;;;;;;;;4971674;28;20034;-79
2024/02/22 01:00:54;;;;;;;4.47;3.50;;;;;;;;;;4973180;28;20027;-79
2024/02/22 01:03:19;;;;;;;4.30;3.60;;;;;;;;;;4953055;28;20129;-78
2024/02/22 01:05:45;;;;;;;4.40;3.60;;;;;;;;;;4956043;28;20149;-79
2024/02/22 01:08:10;;;;;;;5.22;3.38;;;;;;;;;;4972488;28;20026;-79
2024/02/22 01:10:36;;;;;;;5.47;3.78;;;;;;;;;;4955820;28;20033;-79
2024/02/22 01:13:01;;;;;;;4.55;3.50;;;;;;;;;;4969551;28;20808;-79
2024/02/22 01:15:26;;;;;;;3.80;3.08;;;;;;;;;;4963274;28;20385;-79
2024/02/22 01:17:52;;;;;;;3.92;3.13;;;;;;;;;;4973618;28;20038;-79
2024/02/22 01:20:18;;;;;;;4.10;3.30;;;;;;;;;;4972712;28;20110;-79
2024/02/22 01:22:43;;;;;;;4.47;3.42;;;;;;;;;;4973732;28;20026;-79
2024/02/22 01:25:10;;;;;;;4.00;3.05;;;;;;;;;;4961273;28;20026;-79
2024/02/22 01:27:35;;;;;;;4.30;3.40;;;;;;;;;;4959593;28;20038;-78
2024/02/22 01:30:02;;;;;;;4.53;3.58;;;;;;;;;;4975173;28;20022;-79
2024/02/22 01:32:28;;;;;;;5.30;3.72;;;;;;;;;;4966494;28;20390;-79
2024/02/22 01:34:53;;;;;;;4.68;3.55;;;;;;;;;;4969714;28;20520;-79
2024/02/22 01:37:19;;;;;;;4.50;3.63;;;;;;;;;;4954339;28;20037;-79
2024/02/22 01:39:46;;;;;;;4.63;3.30;;;;;;;;;;4962994;28;20031;-78
2024/02/22 01:42:11;;;;;;;4.43;3.47;;;;;;;;;;4965218;28;20035;-79
2024/02/22 01:44:36;;;;;;;5.38;3.58;;;;;;;;;;4963113;28;20485;-79
2024/02/22 01:47:02;;;;;;;4.45;3.30;;;;;;;;;;4963425;28;20042;-79
2024/02/22 01:49:28;;;;;;;4.85;3.75;;;;;;;;;;4963631;28;20073;-79
2024/02/22 01:51:59;;;;;;;4.60;3.33;;;;;;;;;;4966511;28;20030;-79
2024/02/22 01:54:26;;;;;;;4.82;3.42;;;;;;;;;;4965430;28;20073;-79
2024/02/22 01:56:52;;;;;;;4.70;3.75;;;;;;;;;;4968042;28;20018;-79
2024/02/22 01:59:17;;;;;;;4.82;3.78;;;;;;;;;;4952248;28;20096;-79
2024/02/22 02:01:45;;;;;;;5.13;4.00;;;;;;;;;;4966694;23;20037;-88
2024/02/22 02:04:12;;;;;;;5.50;3.92;;;;;;;;;;4981591;28;20501;-88
2024/02/22 02:06:38;;;;;;;4.68;3.53;;;;;;;;;;4966574;28;20037;-87
2024/02/22 02:09:04;;;;;;;5.68;4.32;;;;;;;;;;4983746;28;20038;-89
2024/02/22 02:11:29;;;;;;;5.93;4.35;;;;;;;;;;4981399;28;20054;-88
2024/02/22 02:13:55;;;;;;;6.80;4.72;;;;;;;;;;4966329;28;20042;-88
2024/02/22 02:16:20;;;;;;;6.85;4.70;;;;;;;;;;4967800;28;20046;-88
2024/02/22 02:18:46;;;;;;;6.80;5.15;;;;;;;;;;4967544;28;20034;-88
2024/02/22 02:21:32;;;;;;;6.63;4.93;;;;;;;;;;4967537;28;20085;-88
2024/02/22 02:24:18;;;;;;;7.30;5.03;;;;;;;;;;4968117;28;20030;-88
2024/02/22 02:26:44;;;;;;;6.78;5.25;;;;;;;;;;4968633;28;20448;-88
2024/02/22 02:29:09;;;;;;;8.98;5.82;;;;;;;;;;4969388;28;20064;-88
2024/02/22 02:31:34;;;;;;;7.25;5.85;;;;;;;;;;4969488;28;20145;-87
2024/02/22 02:34:00;;;;;;;8.32;5.65;;;;;;;;;;4964496;28;20058;-89
2024/02/22 02:36:25;;;;;;;7.32;5.55;;;;;;;;;;4966521;28;20034;-88
2024/02/22 02:38:51;;;;;;;7.90;5.72;;;;;;;;;;4968974;28;20073;-88
2024/02/22 02:41:16;;;;;;;7.45;5.80;;;;;;;;;;4980860;28;20116;-88
2024/02/22 02:43:41;;;;;;;9.73;5.80;;;;;;;;;;4982521;28;20054;-87
2024/02/22 02:46:07;;;;;;;10.10;6.63;;;;;;;;;;4980904;28;20447;-89
2024/02/22 02:48:32;;;;;;;8.25;5.88;;;;;;;;;;4968282;28;20030;-88
2024/02/22 02:50:59;;;;;;;10.35;6.68;;;;;;;;;;4979002;28;20031;-87
2024/02/22 02:53:24;;;;;;;8.77;6.18;;;;;;;;;;4948422;28;20042;-88
2024/02/22 02:55:50;;;;;;;10.85;6.20;;;;;;;;;;4949462;28;20428;-88
2024/02/22 02:58:15;;;;;;;10.15;7.10;;;;;;;;;;4945411;28;20031;-87
2024/02/22 03:00:40;;;;;;;9.43;6.90;;;;;;;;;;4948505;28;20035;-88
2024/02/22 03:03:06;;;;;;;11.15;6.53;;;;;;;;;;4962121;28;20413;-88
2024/02/22 03:05:31;;;;;;;10.88;6.90;;;;;;;;;;4961582;28;20110;-86
2024/02/22 03:07:57;;;;;;;11.85;7.32;;;;;;;;;;4943029;28;20117;-87
2024/02/22 03:10:23;;;;;;;11.25;7.22;;;;;;;;;;4960952;28;20110;-88
2024/02/22 03:12:51;;;;;;;9.88;6.43;;;;;;;;;;4959946;28;20559;-88
2024/02/22 03:15:17;;;;;;;10.65;6.63;;;;;;;;;;4947612;28;20035;-88
2024/02/22 03:17:42;;;;;;;12.63;7.03;;;;;;;;;;4962787;28;20022;-88
2024/02/22 03:20:10;;;;;;;12.65;6.43;;;;;;;;;;4947235;28;20062;-88
2024/02/22 03:22:37;;;;;;;11.95;6.75;;;;;;;;;;4949010;28;20031;-88
2024/02/22 03:25:02;;;;;;;12.35;7.00;;;;;;;;;;4963274;28;20027;-88
2024/02/22 03:27:27;;;;;;;12.38;6.88;;;;;;;;;;4959869;28;20509;-87
2024/02/22 03:29:53;;;;;;;11.32;6.32;;;;;;;;;;4942882;28;20034;-88
2024/02/22 03:32:18;;;;;;;14.65;6.90;;;;;;;;;;4943067;28;20027;-88
2024/02/22 03:34:44;;;;;;;11.15;6.75;;;;;;;;;;4943166;28;20038;-88
2024/02/22 03:37:12;;;;;;;11.90;6.95;;;;;;;;;;4944041;28;20660;-88
2024/02/22 03:39:38;;;;;;;12.55;7.75;;;;;;;;;;4941668;28;20034;-88
2024/02/22 03:42:03;;;;;;;12.98;6.90;;;;;;;;;;4958220;28;20072;-87
2024/02/22 03:44:28;;;;;;;15.05;7.07;;;;;;;;;;4942059;28;20122;-88
2024/02/22 03:46:54;;;;;;;12.10;6.80;;;;;;;;;;4959026;28;20046;-88
2024/02/22 03:49:19;;;;;;;13.60;6.88;;;;;;;;;;4959055;28;20070;-87
2024/02/22 03:51:44;;;;;;;13.70;6.72;;;;;;;;;;4947868;28;20026;-88
2024/02/22 03:54:10;;;;;;;15.80;6.40;;;;;;;;;;4944250;28;20029;-88
2024/02/22 03:56:36;;;;;;;14.02;6.40;;;;;;;;;;4947451;28;20441;-88
2024/02/22 03:59:02;;;;;;;12.75;6.07;;;;;;;;;;4947727;28;20058;-89
2024/02/22 04:01:28;;;;;;;13.00;5.38;;;;;;;;;;4960143;28;20073;-88
2024/02/22 04:03:58;;;;;;;18.63;6.47;;;;;;;;;;4923409;28;1239631;-88
2024/02/22 04:06:24;;;;;;;15.82;5.40;;;;;;;;;;4947741;28;20742;-88
2024/02/22 04:08:51;;;;;;;15.43;5.15;;;;;;;;;;4959207;28;20042;-88
2024/02/22 04:11:16;;;;;;;15.40;5.05;;;;;;;;;;4950753;28;20112;-88
2024/02/22 04:13:42;;;;;;;14.20;4.75;;;;;;;;;;4946448;28;20058;-88
2024/02/22 04:16:07;;;;;;;16.38;4.78;;;;;;;;;;4948294;28;20031;-88
2024/02/22 04:18:34;;;;;;;15.13;4.65;;;;;;;;;;4947701;28;20035;-87
2024/02/22 04:21:00;;;;;;;11.90;4.30;;;;;;;;;;4947327;28;20114;-88
2024/02/22 04:23:26;;;;;;;17.30;4.82;;;;;;;;;;4949144;28;20504;-81
2024/02/22 04:25:51;;;;;;;13.40;5.03;;;;;;;;;;4965406;28;20049;-81
2024/02/22 04:28:18;;;;;;;14.50;4.70;;;;;;;;;;4964786;28;20033;-81
2024/02/22 04:30:47;;;;;;;16.40;5.20;;;;;;;;;;4962903;28;20122;-81
2024/02/22 04:33:13;;;;;;;16.15;5.15;;;;;;;;;;4963860;28;20034;-81
2024/02/22 04:35:43;;;;;;;15.85;4.30;;;;;;;;;;4963411;28;20027;-81
2024/02/22 04:38:10;;;;;;;16.75;4.28;;;;;;;;;;4961961;28;20169;-81
2024/02/22 04:40:36;;;;;;;17.40;4.30;;;;;;;;;;4964422;28;20033;-81
2024/02/22 04:43:02;;;;;;;15.05;4.30;;;;;;;;;;4962628;28;20113;-81
2024/02/22 04:45:27;;;;;;;16.23;3.95;;;;;;;;;;4961960;28;20117;-81
2024/02/22 04:47:53;;;;;;;13.82;4.07;;;;;;;;;;4962697;28;20054;-82
2024/02/22 04:50:19;;;;;;;16.17;4.32;;;;;;;;;;4965183;28;20484;-81
2024/02/22 04:52:44;;;;;;;17.42;4.38;;;;;;;;;;4961667;28;20039;-81
2024/02/22 04:55:09;;;;;;;11.77;4.38;;;;;;;;;;4960853;28;20473;-81
2024/02/22 04:57:35;;;;;;;15.02;4.38;;;;;;;;;;4966861;28;20019;-82
2024/02/22 05:00:03;;;;;;;15.52;5.03;;;;;;;;;;4965366;28;20026;-81
2024/02/22 05:02:28;;;;;;;20.20;5.65;;;;;;;;;;4958785;28;20392;-81
2024/02/22 05:04:54;;;;;;;15.45;5.18;;;;;;;;;;4966019;28;20023;-81
2024/02/22 05:07:19;;;;;;;13.85;5.82;;;;;;;;;;4961932;28;20037;-82
2024/02/22 05:09:45;;;;;;;16.77;6.45;;;;;;;;;;4959458;28;20057;-81
2024/02/22 05:12:10;;;;;;;17.45;6.53;;;;;;;;;;4961097;28;20027;-81
2024/02/22 05:14:36;;;;;;;15.30;6.60;;;;;;;;;;4960107;28;20665;-81
2024/02/22 05:17:02;;;;;;;15.82;7.03;;;;;;;;;;4960925;28;20027;-81
2024/02/22 05:19:27;;;;;;;17.70;8.05;;;;;;;;;;4964335;28;20023;-81
2024/02/22 05:21:52;;;;;;;23.10;8.77;;;;;;;;;;4959530;28;20113;-81
2024/02/22 05:24:18;;;;;;;19.35;8.70;;;;;;;;;;4956479;28;20081;-80
2024/02/22 05:26:44;;;;;;;14.23;8.57;;;;;;;;;;4958384;28;20067;-81
2024/02/22 05:29:09;;;;;;;15.07;8.23;;;;;;;;;;4959915;28;20019;-81
2024/02/22 05:31:35;;;;;;;17.90;8.30;;;;;;;;;;4960206;28;20031;-81
2024/02/22 05:34:00;;;;;;;15.15;8.20;;;;;;;;;;4958800;28;20505;-82
2024/02/22 05:36:26;;;;;;;17.05;8.30;;;;;;;;;;4959211;28;20030;-82
2024/02/22 05:38:51;;;;;;;14.23;7.30;;;;;;;;;;4958908;28;20037;-81
2024/02/22 05:41:17;;;;;;;16.67;7.90;;;;;;;;;;4958654;28;20401;-81
2024/02/22 05:43:42;;;;;;;14.75;7.57;;;;;;;;;;4956394;28;20030;-82
2024/02/22 05:46:08;;;;;;;16.17;7.63;;;;;;;;;;4960072;28;20396;-81
2024/02/22 05:48:33;;;;;;;13.65;6.97;;;;;;;;;;4956727;28;20516;-81
2024/02/22 05:50:59;;;;;;;12.00;6.40;;;;;;;;;;4959285;28;20081;-81
2024/02/22 05:53:24;;;;;;;14.90;6.68;;;;;;;;;;4954619;28;20039;-81
2024/02/22 05:55:50;;;;;;;17.23;6.63;;;;;;;;;;4955273;28;20027;-81
2024/02/22 05:58:17;;;;;;;13.60;5.82;;;;;;;;;;4957514;28;20042;-81
2024/02/22 06:00:42;;;;;;;9.82;5.72;;;;;;;;;;4957390;28;20023;-81
2024/02/22 06:03:11;;;;;;;11.98;5.82;;;;;;;;;;4956673;28;20027;-82
2024/02/22 06:05:37;;;;;;;12.32;5.35;;;;;;;;;;4957828;28;20050;-82
2024/02/22 06:08:03;;;;;;;14.23;5.50;;;;;;;;;;4958504;28;20111;-81
2024/02/22 06:10:29;;;;;;;8.52;5.10;;;;;;;;;;4957430;28;20122;-82
2024/02/22 06:12:54;;;;;;;9.52;4.93;;;;;;;;;;4953580;28;20044;-81
2024/02/22 06:15:21;;;;;;;11.82;4.95;;;;;;;;;;4957140;28;20034;-81
2024/02/22 06:17:47;;;;;;;12.60;5.25;;;;;;;;;;4954740;28;20023;-81
2024/02/22 06:20:12;;;;;;;15.57;5.03;;;;;;;;;;4957169;28;20375;-81
2024/02/22 06:22:38;;;;;;;11.70;5.10;;;;;;;;;;4956578;28;20766;-81
2024/02/22 06:25:03;;;;;;;12.02;4.85;;;;;;;;;;4958931;28;20050;-81
2024/02/22 06:27:29;;;;;;;8.38;3.92;;;;;;;;;;4952946;28;20031;-81
2024/02/22 06:29:55;;;;;;;10.23;4.22;;;;;;;;;;4950790;28;20035;-81
2024/02/22 06:32:23;;;;;;;11.90;4.60;;;;;;;;;;4956699;28;20476;-81
2024/02/22 06:34:48;;;;;;;12.55;4.60;;;;;;;;;;4956191;28;20058;-81
2024/02/22 06:37:15;;;;;;;11.95;4.28;;;;;;;;;;4956023;28;20161;-81
2024/02/22 06:39:41;;;;;;;9.55;4.25;;;;;;;;;;4958651;28;20041;-81
2024/02/22 06:42:06;;;;;;;10.02;4.20;;;;;;;;;;4958351;28;20023;-84
2024/02/22 06:44:31;;;;;;;7.25;4.00;;;;;;;;;;4955975;28;20151;-81
2024/02/22 06:46:58;;;;;;;9.13;4.60;;;;;;;;;;4960758;28;20033;-81
2024/02/22 06:49:24;;;;;;;9.82;3.70;;;;;;;;;;4963083;28;20029;-81
2024/02/22 06:51:50;;;;;;;8.40;3.83;;;;;;;;;;4961512;28;20026;-81
2024/02/22 06:54:15;;;;;;;9.00;4.18;;;;;;;;;;4958426;28;20830;-81
2024/02/22 06:56:40;;;;;;;9.43;3.75;;;;;;;;;;4961498;28;20031;-80
2024/02/22 06:59:06;;;;;;;11.02;3.58;;;;;;;;;;4960784;28;20030;-81
2024/02/22 07:01:33;;;;;;;9.63;3.75;;;;;;;;;;4966542;28;20026;-81
2024/02/22 07:03:58;;;;;;;7.93;3.60;;;;;;;;;;4953595;28;20035;-81
2024/02/22 07:06:24;;;;;;;7.18;3.58;;;;;;;;;;4963107;28;20030;-81
2024/02/22 07:08:49;;;;;;;7.00;3.80;;;;;;;;;;4962057;28;20066;-80
2024/02/22 07:11:14;;;;;;;8.70;3.88;;;;;;;;;;4970676;28;20052;-81
2024/02/22 07:13:40;;;;;;;10.77;4.22;;;;;;;;;;4970044;28;20054;-81
2024/02/22 07:16:07;;;;;;;10.50;4.10;;;;;;;;;;4970244;28;20477;-81
2024/02/22 07:18:33;;;;;;;8.57;4.10;;;;;;;;;;4971746;28;20027;-81
2024/02/22 07:21:03;;;;;;;9.98;4.85;;;;;;;;;;4969328;28;20033;-81
2024/02/22 07:23:28;;;;;;;9.80;4.63;;;;;;;;;;4971854;28;20026;-81
2024/02/22 07:25:53;;;;;;;9.32;4.38;;;;;;;;;;4968128;28;20450;-80
2024/02/22 07:28:20;;;;;;;9.40;4.63;;;;;;;;;;4972167;28;20033;-81
2024/02/22 07:30:46;;;;;;;8.15;4.22;;;;;;;;;;4966243;28;20105;-81
2024/02/22 07:33:11;;;;;;;6.60;4.72;;;;;;;;;;4961263;28;20117;-81
2024/02/22 07:35:36;;;;;;;10.65;4.90;;;;;;;;;;4967430;28;20027;-81
2024/02/22 07:38:02;;;;;;;8.40;4.57;;;;;;;;;;4971585;28;20022;-81
2024/02/22 07:40:28;;;;;;;8.98;4.60;;;;;;;;;;4951578;28;20238;-82
2024/02/22 07:42:53;;;;;;;7.65;4.70;;;;;;;;;;4966454;28;21608;-81
2024/02/22 07:45:18;;;;;;;8.90;4.80;;;;;;;;;;4967591;28;20038;-81
2024/02/22 07:47:44;;;;;;;8.80;4.50;;;;;;;;;;4958733;28;20448;-80
2024/02/22 07:50:10;;;;;;;7.25;4.35;;;;;;;;;;4963911;28;20085;-80
2024/02/22 07:52:40;;;;;;;9.75;4.60;;;;;;;;;;4963598;28;20070;-80
2024/02/22 07:55:06;;;;;;;8.75;4.35;;;;;;;;;;4963951;28;20031;-81
2024/02/22 07:57:32;;;;;;;7.38;4.78;;;;;;;;;;4968548;28;20022;-81
2024/02/22 07:59:57;;;;;;;8.82;4.28;;;;;;;;;;4964636;28;20436;-80
2024/02/22 08:02:23;;;;;;;9.40;4.78;;;;;;;;;;4962543;28;20101;-80
2024/02/22 08:04:50;;;;;;;9.13;4.55;;;;;;;;;;4966814;28;20027;-80
2024/02/22 08:07:16;;;;;;;7.07;4.43;;;;;;;;;;4950863;28;20039;-80
2024/02/22 08:09:41;;;;;;;8.38;5.15;;;;;;;;;;4968147;28;21487;-80
2024/02/22 08:12:07;;;;;;;7.68;4.40;;;;;;;;;;4961853;28;20033;-80
2024/02/22 08:14:32;;;;;;;8.23;4.50;;;;;;;;;;4964387;28;20035;-80
2024/02/22 08:16:58;;;;;;;8.85;4.60;;;;;;;;;;4968088;28;20440;-80
2024/02/22 08:19:23;;;;;;;7.32;4.72;;;;;;;;;;4949568;28;20039;-80
2024/02/22 08:21:51;;;;;;;6.72;4.28;;;;;;;;;;4965223;28;20816;-80
2024/02/22 08:24:17;;;;;;;9.55;4.40;;;;;;;;;;4968484;28;20085;-81
2024/02/22 08:26:42;;;;;;;7.85;5.03;;;;;;;;;;4969773;28;20037;-80
2024/02/22 08:29:08;;;;;;;6.97;4.53;;;;;;;;;;4962865;28;20394;-80
2024/02/22 08:31:34;;;;;;;11.18;5.32;;;;;;;;;;4967771;28;20031;-80
2024/02/22 08:33:59;;;;;;;7.75;4.93;;;;;;;;;;4965227;28;20505;-80
2024/02/22 08:36:24;;;;;;;9.88;5.15;;;;;;;;;;4966720;28;20026;-80
2024/02/22 08:38:50;;;;;;;7.45;5.18;;;;;;;;;;4953870;28;20025;-81
2024/02/22 08:41:16;;;;;;;8.30;5.18;;;;;;;;;;4969120;28;20030;-80
2024/02/22 08:43:42;;;;;;;6.90;4.72;;;;;;;;;;4967287;28;20388;-81
2024/02/22 08:46:07;;;;;;;7.88;4.90;;;;;;;;;;4951357;28;20034;-81
2024/02/22 08:48:35;;;;;;;9.50;4.88;;;;;;;;;;4969783;28;20031;-81
2024/02/22 08:51:01;;;;;;;6.88;4.70;;;;;;;;;;4972391;28;20023;-80
2024/02/22 08:53:26;;;;;;;6.10;4.18;;;;;;;;;;4966001;28;20037;-79
2024/02/22 08:55:52;;;;;;;5.90;4.20;;;;;;;;;;4967917;28;20366;-79
2024/02/22 08:58:17;;;;;;;5.50;3.92;;;;;;;;;;4965170;28;20109;-79
2024/02/22 09:00:43;;;;;;;5.53;3.97;;;;;;;;;;4968208;28;20465;-79
2024/02/22 09:03:09;;;;;;;5.80;3.50;;;;;;;;;;4968990;28;20452;-88
2024/02/22 09:05:36;;;;;;;7.18;4.05;;;;;;;;;;4946184;28;20030;-88
2024/02/22 09:08:01;;;;;;;6.93;4.18;;;;;;;;;;4961187;28;20027;-89
2024/02/22 09:10:26;;;;;;;6.43;4.38;;;;;;;;;;4948976;29;20094;-88
2024/02/22 09:12:52;;;;;;;7.90;4.97;;;;;;;;;;4954676;28;20396;-88
2024/02/22 09:15:17;;;;;;;6.85;4.95;;;;;;;;;;4953164;28;20548;-89
2024/02/22 09:17:43;;;;;;;8.77;5.75;;;;;;;;;;4951746;28;20457;-88
2024/02/22 09:20:09;;;;;;;8.45;5.22;;;;;;;;;;4950532;29;20023;-90
2024/02/22 09:22:35;;;;;;;6.10;4.80;;;;;;;;;;4955185;28;20489;-89
2024/02/22 09:25:00;;;;;;;7.05;4.70;;;;;;;;;;4949446;28;20030;-89
2024/02/22 09:27:27;;;;;;;7.50;4.75;;;;;;;;;;4957227;28;20027;-88
2024/02/22 09:29:53;;;;;;;6.40;4.45;;;;;;;;;;4954915;28;20019;-89
2024/02/22 09:32:19;;;;;;;6.03;4.28;;;;;;;;;;4947083;28;20031;-90
2024/02/22 09:34:44;;;;;;;6.25;4.22;;;;;;;;;;4954797;28;20104;-89
2024/02/22 09:37:10;;;;;;;4.78;3.67;;;;;;;;;;4955462;28;20035;-88
2024/02/22 09:39:35;;;;;;;7.30;4.03;;;;;;;;;;4946755;28;20030;-89
2024/02/22 09:42:01;;;;;;;6.72;3.80;;;;;;;;;;4953191;28;20031;-90
2024/02/22 09:44:28;;;;;;;8.27;3.38;;;;;;;;;;4956014;28;20118;-88
2024/02/22 09:46:54;;;;;;;3.90;2.90;;;;;;;;;;4957863;28;20033;-89
2024/02/22 09:49:23;;;;;;;4.10;3.05;;;;;;;;;;4961538;28;20094;-90
2024/02/22 09:51:56;;;;;;;4.32;3.15;;;;;;;;;;4950460;28;20081;-88
2024/02/22 09:54:22;;;;;;;4.63;3.13;;;;;;;;;;4949498;28;20102;-89
2024/02/22 09:56:49;;;;;;;4.47;3.30;;;;;;;;;;4967534;28;20083;-89
2024/02/22 09:59:16;;;;;;;4.57;3.58;;;;;;;;;;4953874;28;20038;-89
2024/02/22 10:01:41;;;;;;;5.13;3.30;;;;;;;;;;4953874;28;20397;-90
2024/02/22 10:04:23;;;;;;;4.47;3.35;;;;;;;;;;4951612;28;20033;-88
2024/02/22 10:06:58;;;;;;;4.18;3.08;;;;;;;;;;4942003;28;20119;-87
2024/02/22 10:09:24;;;;;;;4.28;3.20;;;;;;;;;;4968494;28;20030;-90
2024/02/22 10:11:49;;;;;;;6.35;3.10;;;;;;;;;;4953198;28;20456;-89
2024/02/22 10:14:15;;;;;;;4.50;2.85;;;;;;;;;;4947366;28;20027;-89
2024/02/22 10:16:41;;;;;;;5.10;2.85;;;;;;;;;;4968540;28;21635;-87
2024/02/22 10:19:07;;;;;;;4.90;2.92;;;;;;;;;;4955002;28;20506;-88
2024/02/22 10:21:33;;;;;;;4.32;3.00;;;;;;;;;;4952634;28;20034;-89
2024/02/22 10:23:59;;;;;;;4.25;2.55;;;;;;;;;;4950211;28;20027;-87
2024/02/22 10:26:27;;;;;;;3.95;2.92;;;;;;;;;;4945012;28;20035;-88
2024/02/22 10:29:00;;;;;;;4.30;2.85;;;;;;;;;;4956724;28;20031;-88
2024/02/22 10:31:25;;;;;;;4.32;2.80;;;;;;;;;;4966286;28;20058;-89
2024/02/22 10:33:52;;;;;;;4.22;3.00;;;;;;;;;;4952034;28;20464;-88
2024/02/22 10:36:19;;;;;;;3.50;2.60;;;;;;;;;;4951003;28;20038;-89
2024/02/22 10:38:45;;;;;;;3.88;2.70;;;;;;;;;;4949901;29;20035;-89
2024/02/22 10:41:13;;;;;;;3.28;2.50;;;;;;;;;;4954429;28;20073;-90
2024/02/22 10:43:42;;;;;;;4.18;2.35;;;;;;;;;;4966232;28;20102;-89
2024/02/22 10:46:12;;;;;;;4.20;2.55;;;;;;;;;;4952043;28;20037;-88
2024/02/22 10:48:44;;;;;;;4.70;2.80;;;;;;;;;;4946977;28;20163;-90
2024/02/22 10:51:10;;;;;;;3.58;2.67;;;;;;;;;;4953844;28;20485;-89
2024/02/22 10:53:39;;;;;;;3.50;2.50;;;;;;;;;;4942287;28;20046;-89
2024/02/22 10:56:06;;;;;;;3.28;2.78;;;;;;;;;;4951078;28;20598;-89
2024/02/22 10:58:35;;;;;;;3.50;2.67;;;;;;;;;;4954547;28;20035;-89
2024/02/22 11:01:07;;;;;;;3.42;2.95;;;;;;;;;;4951816;28;20062;-89
2024/02/22 11:03:34;;;;;;;6.25;2.63;;;;;;;;;;4952346;28;20114;-89
2024/02/22 11:06:03;;;;;;;3.95;2.63;;;;;;;;;;4952065;28;20061;-89
2024/02/22 11:08:29;;;;;;;3.80;2.58;;;;;;;;;;4952869;28;20030;-89
2024/02/22 11:11:02;;;;;;;3.70;3.05;;;;;;;;;;4948320;28;20035;-90
2024/02/22 11:13:28;;;;;;;;;;;;;;;;;;4948087;28;20125;-89
2024/02/22 11:15:53;;;;;;;4.35;2.80;;;;;;;;;;4952268;28;20361;-89
2024/02/22 11:18:25;;;;;;;3.72;2.95;;;;;;;;;;4946676;28;20026;-89
2024/02/22 11:20:51;;;;;;;4.38;2.72;;;;;;;;;;4947823;28;20485;-89
2024/02/22 11:23:18;;;;;;;5.53;2.88;;;;;;;;;;4948264;28;20035;-79
2024/02/22 11:25:45;;;;;;;4.80;2.72;;;;;;;;;;4968086;28;20023;-79
2024/02/22 11:28:11;;;;;;;3.50;2.70;;;;;;;;;;4961292;28;20040;-78
2024/02/22 11:30:37;;;;;;;3.42;2.90;;;;;;;;;;4963369;28;20528;-79
2024/02/22 11:33:03;;;;;;;3.78;2.65;;;;;;;;;;4967936;28;20042;-79
2024/02/22 11:35:29;;;;;;;3.50;2.72;;;;;;;;;;4954072;28;20069;-79
2024/02/22 11:38:04;;;;;;;5.18;2.63;;;;;;;;;;4970522;28;20036;-79
2024/02/22 11:40:34;;;;;;;6.65;2.53;;;;;;;;;;4973039;28;20031;-79
2024/02/22 11:43:01;;;;;;;3.20;2.40;;;;;;;;;;4965100;28;20030;-79
2024/02/22 11:45:27;;;;;;;4.57;2.30;;;;;;;;;;4964529;28;20023;-79
2024/02/22 11:47:52;;;;;;;5.10;2.50;;;;;;;;;;4969140;28;20504;-80
2024/02/22 11:50:19;;;;;;;3.10;2.50;;;;;;;;;;4960119;28;20405;-80
2024/02/22 11:52:45;;;;;;;4.22;2.80;;;;;;;;;;4969471;28;20642;-79
2024/02/22 11:55:11;;;;;;;3.25;2.17;;;;;;;;;;4969968;28;20105;-80
2024/02/22 11:57:36;;;;;;;3.70;2.60;;;;;;;;;;4967314;28;20162;-80
2024/02/22 12:00:02;;;;;;;4.03;2.83;;;;;;;;;;4964149;28;20030;-79
2024/02/22 12:02:28;;;;;;;5.75;2.80;;;;;;;;;;4968829;28;20397;-80
2024/02/22 12:04:54;;;;;;;3.58;2.30;;;;;;;;;;4961878;28;20018;-79
2024/02/22 12:07:21;;;;;;;4.82;2.28;;;;;;;;;;4964558;28;20039;-80
2024/02/22 12:09:47;;;;;;;3.40;2.38;;;;;;;;;;4967162;28;20070;-79
2024/02/22 12:12:13;;;;;;;4.72;2.58;;;;;;;;;;4963193;28;20035;-79
2024/02/22 12:14:38;;;;;;;3.88;2.38;;;;;;;;;;4966750;28;20037;-79
2024/02/22 12:17:10;;;;;;;2.90;1.92;;;;;;;;;;4967327;28;20077;-80
2024/02/22 12:19:36;;;;;;;3.10;2.28;;;;;;;;;;4966199;28;20030;-79
2024/02/22 12:22:02;;;;;;;4.25;2.30;;;;;;;;;;4969746;28;20049;-79
2024/02/22 12:24:29;;;;;;;3.28;2.13;;;;;;;;;;4971101;28;20453;-79
2024/02/22 12:26:54;;;;;;;2.97;2.10;;;;;;;;;;4950247;28;20773;-79
2024/02/22 12:29:20;;;;;;;3.63;1.90;;;;;;;;;;4965816;28;20039;-80
2024/02/22 12:31:45;;;;;;;2.80;2.03;;;;;;;;;;4965337;28;20408;-79
2024/02/22 12:34:11;;;;;;;3.42;1.95;;;;;;;;;;4970661;28;20027;-79
2024/02/22 12:36:36;;;;;;;2.95;2.05;;;;;;;;;;4967189;28;20098;-79
2024/02/22 12:39:02;;;;;;;3.58;1.98;;;;;;;;;;4974131;28;20030;-80
2024/02/22 12:41:28;;;;;;;3.05;1.80;;;;;;;;;;4973485;28;20366;-79
2024/02/22 12:43:57;;;;;;;3.72;1.67;;;;;;;;;;4964572;28;20022;-80
2024/02/22 12:46:22;;;;;;;2.53;1.80;;;;;;;;;;4966218;28;20141;-79
2024/02/22 12:48:48;;;;;;;2.80;1.80;;;;;;;;;;4969657;28;20493;-80
2024/02/22 12:51:15;;;;;;;2.95;1.75;;;;;;;;;;4972184;28;20037;-79
2024/02/22 12:53:42;;;;;;;3.03;1.90;;;;;;;;;;4961156;28;20054;-79
2024/02/22 12:56:08;;;;;;;2.65;1.60;;;;;;;;;;4968499;28;20519;-80
2024/02/22 12:58:33;;;;;;;2.60;1.42;;;;;;;;;;4968121;28;20113;-79
2024/02/22 13:00:59;;;;;;;1.88;1.40;;;;;;;;;;4967918;28;20429;-79
2024/02/22 13:03:25;;;;;;;2.55;1.50;;;;;;;;;;4964641;28;20035;-79
2024/02/22 13:05:51;;;;;;;2.03;1.58;;;;;;;;;;4965340;28;20117;-79
2024/02/22 13:08:17;;;;;;;2.17;1.35;;;;;;;;;;4969144;28;20027;-79
2024/02/22 13:10:42;;;;;;;2.08;1.50;;;;;;;;;;4969783;28;20033;-79
2024/02/22 13:13:08;;;;;;;2.05;1.40;;;;;;;;;;4965589;28;20031;-79
2024/02/22 13:15:33;;;;;;;2.42;1.38;;;;;;;;;;4965503;28;20034;-80
2024/02/22 13:18:00;;;;;;;2.00;1.40;;;;;;;;;;4970377;28;20434;-79
2024/02/22 13:20:26;;;;;;;2.83;1.38;;;;;;;;;;4967765;28;20034;-79
2024/02/22 13:22:52;;;;;;;1.42;1.20;;;;;;;;;;4965922;28;20514;-79
2024/02/22 13:25:17;;;;;;;2.38;1.60;;;;;;;;;;4962218;28;20389;-79
2024/02/22 13:27:43;;;;;;;2.17;1.40;;;;;;;;;;4964558;28;20524;-79
2024/02/22 13:30:10;;;;;;;2.08;1.42;;;;;;;;;;4962645;28;20551;-80
2024/02/22 13:32:38;;;;;;;1.80;1.35;;;;;;;;;;4968214;28;20033;-80
2024/02/22 13:35:04;;;;;;;2.55;1.60;;;;;;;;;;4963759;28;20023;-79
2024/02/22 13:37:31;;;;;;;2.00;1.50;;;;;;;;;;4963976;28;20049;-80
2024/02/22 13:39:56;;;;;;;4.25;1.90;;;;;;;;;;4967772;28;20077;-80
2024/02/22 13:42:22;;;;;;;1.90;1.50;;;;;;;;;;4972933;28;20031;-80
2024/02/22 13:44:47;;;;;;;1.88;1.48;;;;;;;;;;4969841;28;20370;-80
2024/02/22 13:47:12;;;;;;;2.00;1.42;;;;;;;;;;4970396;28;20118;-80
2024/02/22 13:49:38;;;;;;;2.58;1.77;;;;;;;;;;4969025;28;20366;-80
2024/02/22 13:52:03;;;;;;;1.77;1.45;;;;;;;;;;4968974;28;20027;-80
2024/02/22 13:54:29;;;;;;;1.85;1.40;;;;;;;;;;4963540;28;20118;-80
2024/02/22 13:56:56;;;;;;;2.70;1.35;;;;;;;;;;4971138;28;20472;-80
2024/02/22 13:59:22;;;;;;;2.45;1.40;;;;;;;;;;4969384;28;20026;-80
2024/02/22 14:01:48;;;;;;;2.70;1.50;;;;;;;;;;4964829;28;20054;-80
2024/02/22 14:04:13;;;;;;;2.10;1.60;;;;;;;;;;4969803;28;20023;-80
2024/02/22 14:06:39;;;;;;;3.63;1.35;;;;;;;;;;4964557;28;20050;-80
2024/02/22 14:09:05;;;;;;;2.72;1.60;;;;;;;;;;4961352;28;20033;-80
2024/02/22 14:11:30;;;;;;;2.38;1.40;;;;;;;;;;4971707;28;20439;-80
2024/02/22 14:13:55;;;;;;;2.75;1.50;;;;;;;;;;4968337;28;20464;-80
2024/02/22 14:16:21;;;;;;;1.83;1.42;;;;;;;;;;4949476;28;20093;-80
2024/02/22 14:18:46;;;;;;;2.17;1.50;;;;;;;;;;4967765;28;20035;-80
2024/02/22 14:21:13;;;;;;;1.80;1.30;;;;;;;;;;4959603;28;20378;-80
2024/02/22 14:23:45;;;;;;;3.13;1.80;;;;;;;;;;4971377;28;20084;-80
2024/02/22 14:26:10;;;;;;;2.42;1.52;;;;;;;;;;4965720;28;20049;-80
2024/02/22 14:28:36;;;;;;;1.77;1.38;;;;;;;;;;4966436;28;20477;-80
2024/02/22 14:31:02;;;;;;;2.20;1.25;;;;;;;;;;4963304;28;20082;-80
2024/02/22 14:33:28;;;;;;;2.10;1.20;;;;;;;;;;4965090;28;20031;-80